Time;durP1;ratioP1;P1;durP2;ratioP2;P2;SDS_P1;SDS_P2;PMS_P1;PMS_P2;Temp;Humidity;BMP_temperature;BMP_pressure;BME280_temperature;BME280_humidity;BME280_pressure;Samples;Min_cycle;Max_cycle;Signal;HPM_P1;HPM_P2
2023/05/27 00:00:59;;;;;;;6.10;4.80;;;;;;;25.61;50.87;100512.72;5074481;28;20048;-64
2023/05/27 00:03:28;;;;;;;7.28;5.30;;;;;;;25.59;50.90;100521.13;5074542;28;20051;-65
2023/05/27 00:05:56;;;;;;;6.55;4.95;;;;;;;25.58;50.77;100521.31;5074317;28;20062;-64
2023/05/27 00:08:24;;;;;;;7.13;5.30;;;;;;;25.57;50.88;100523.16;5074227;28;20048;-64
2023/05/27 00:10:53;;;;;;;7.07;5.30;;;;;;;25.56;51.15;100510.53;5074112;28;20079;-64
2023/05/27 00:13:21;;;;;;;6.78;4.85;;;;;;;25.55;51.17;100514.31;5073966;28;20072;-65
2023/05/27 00:15:49;;;;;;;7.43;4.93;;;;;;;25.54;51.13;100514.50;5074036;28;20560;-64
2023/05/27 00:18:19;;;;;;;6.95;5.28;;;;;;;25.54;51.37;100519.97;5074156;28;20045;-64
2023/05/27 00:20:48;;;;;;;7.47;5.28;;;;;;;25.50;51.30;100511.28;5074033;28;20059;-64
2023/05/27 00:23:16;;;;;;;6.65;5.10;;;;;;;25.50;51.02;100511.28;5073887;28;20131;-66
2023/05/27 00:25:44;;;;;;;6.43;5.13;;;;;;;25.49;51.08;100508.75;5074242;28;20052;-65
2023/05/27 00:28:12;;;;;;;7.43;5.05;;;;;;;25.48;50.96;100516.09;5073923;28;20037;-65
2023/05/27 00:30:40;;;;;;;6.47;4.97;;;;;;;25.47;51.30;100514.38;5074002;28;20518;-66
2023/05/27 00:33:09;;;;;;;6.80;5.40;;;;;;;25.46;51.10;100515.41;5073876;28;20098;-65
2023/05/27 00:35:38;;;;;;;7.72;5.68;;;;;;;25.45;51.29;100508.25;5073861;28;20433;-65
2023/05/27 00:38:06;;;;;;;7.28;5.40;;;;;;;25.43;51.20;100507.59;5073579;28;20048;-66
2023/05/27 00:40:37;;;;;;;7.00;5.50;;;;;;;25.42;51.04;100505.88;5074014;28;20426;-66
2023/05/27 00:43:06;;;;;;;9.65;5.78;;;;;;;25.42;51.19;100510.50;5073772;28;20121;-65
2023/05/27 00:45:34;;;;;;;7.50;5.40;;;;;;;25.39;51.30;100506.25;5073818;28;20136;-65
2023/05/27 00:48:04;;;;;;;7.88;5.93;;;;;;;25.39;51.56;100509.00;5073687;28;20044;-65
2023/05/27 00:50:32;;;;;;;7.10;5.45;;;;;;;25.38;51.18;100510.00;5073401;28;20563;-67
2023/05/27 00:53:02;;;;;;;8.05;5.30;;;;;;;25.37;51.20;100511.03;5073689;28;20359;-66
2023/05/27 00:55:30;;;;;;;7.13;5.80;;;;;;;25.35;51.04;100507.63;5073035;28;20080;-65
2023/05/27 00:57:59;;;;;;;6.18;5.18;;;;;;;25.35;51.38;100507.63;5073453;28;20048;-66
2023/05/27 01:00:28;;;;;;;7.60;5.60;;;;;;;25.33;51.55;100509.72;5073253;28;20477;-66
2023/05/27 01:02:56;;;;;;;7.70;5.70;;;;;;;25.33;51.45;100517.91;5073225;28;20146;-66
2023/05/27 01:05:24;;;;;;;7.47;5.43;;;;;;;25.31;51.42;100506.31;5073136;28;20114;-65
2023/05/27 01:08:10;;;;;;;6.07;4.90;;;;;;;25.30;51.62;100515.53;5073384;28;20084;-65
2023/05/27 01:10:44;;;;;;;6.93;5.13;;;;;;;25.28;51.38;100512.97;5073227;28;20106;-66
2023/05/27 01:13:19;;;;;;;6.82;5.53;;;;;;;25.27;51.22;100507.69;5072934;28;20076;-66
2023/05/27 01:15:49;;;;;;;7.35;5.57;;;;;;;25.27;51.22;100504.97;5072973;28;20052;-66
2023/05/27 01:18:18;;;;;;;8.45;5.53;;;;;;;25.25;51.31;100502.41;5072933;28;20040;-66
2023/05/27 01:20:49;;;;;;;7.28;5.20;;;;;;;25.24;51.27;100499.88;5073039;28;20052;-65
2023/05/27 01:23:19;;;;;;;6.75;5.45;;;;;;;25.24;51.42;100498.00;5072966;28;20049;-66
2023/05/27 01:25:47;;;;;;;7.30;5.25;;;;;;;25.23;51.66;100495.44;5072827;28;20460;-65
2023/05/27 01:28:16;;;;;;;8.20;5.88;;;;;;;25.22;51.42;100499.22;5072784;28;20080;-65
2023/05/27 01:30:44;;;;;;;6.68;5.32;;;;;;;25.20;51.76;100495.81;5072950;28;20040;-66
2023/05/27 01:33:18;;;;;;;6.65;5.15;;;;;;;25.21;51.25;100497.50;5072917;28;20044;-65
2023/05/27 01:35:52;;;;;;;7.60;5.28;;;;;;;25.18;51.67;100495.97;5072854;28;20048;-66
2023/05/27 01:38:26;;;;;;;6.72;5.47;;;;;;;25.17;51.51;100494.28;5072515;28;20057;-66
2023/05/27 01:40:56;;;;;;;6.45;5.22;;;;;;;25.16;51.33;100497.19;5072479;28;20049;-66
2023/05/27 01:43:24;;;;;;;6.95;5.32;;;;;;;25.16;51.41;100492.59;5072626;28;20044;-66
2023/05/27 01:45:53;;;;;;;7.18;5.47;;;;;;;25.15;51.36;100495.50;5072638;28;20136;-65
2023/05/27 01:48:21;;;;;;;6.18;5.20;;;;;;;25.14;51.36;100496.53;5072330;28;20543;-66
2023/05/27 01:50:49;;;;;;;6.60;5.00;;;;;;;25.14;51.75;100499.25;5072182;28;20056;-65
2023/05/27 01:53:17;;;;;;;7.78;5.22;;;;;;;25.11;51.68;100495.88;5072096;28;20058;-66
2023/05/27 01:55:47;;;;;;;7.93;5.40;;;;;;;25.12;51.65;100502.19;5072512;28;20044;-65
2023/05/27 01:58:15;;;;;;;6.70;5.20;;;;;;;25.10;51.59;100494.19;5072432;28;20128;-65
2023/05/27 02:00:47;;;;;;;6.50;5.35;;;;;;;25.09;51.71;100487.03;5072381;28;20048;-65
2023/05/27 02:03:15;;;;;;;7.50;5.85;;;;;;;25.08;51.55;100489.91;5072245;28;20041;-65
2023/05/27 02:05:44;;;;;;;7.88;5.82;;;;;;;25.07;51.64;100488.22;5071472;28;20055;-65
2023/05/27 02:08:12;;;;;;;6.25;5.03;;;;;;;25.06;51.52;100491.97;5072182;28;20044;-65
2023/05/27 02:10:41;;;;;;;7.57;5.32;;;;;;;25.06;51.85;100489.25;5071956;28;20052;-65
2023/05/27 02:13:10;;;;;;;7.65;5.60;;;;;;;25.04;51.56;100499.50;5071704;28;20497;-65
2023/05/27 02:15:38;;;;;;;7.78;5.90;;;;;;;25.03;51.57;100489.63;5071932;28;20044;-66
2023/05/27 02:18:07;;;;;;;7.38;5.82;;;;;;;25.02;51.57;100493.38;5071829;28;20045;-65
2023/05/27 02:20:35;;;;;;;7.30;5.60;;;;;;;25.00;51.77;100484.50;5071764;28;20064;-65
2023/05/27 02:23:07;;;;;;;8.52;5.93;;;;;;;25.00;51.70;100498.13;5071952;28;20044;-65
2023/05/27 02:25:35;;;;;;;6.70;5.20;;;;;;;24.98;51.73;100490.09;5071945;28;20048;-66
2023/05/27 02:28:03;;;;;;;7.00;5.38;;;;;;;24.97;51.77;100482.94;5071690;28;20464;-66
2023/05/27 02:30:33;;;;;;;7.50;5.45;;;;;;;24.97;51.58;100484.84;5071637;28;20478;-65
2023/05/27 02:33:01;;;;;;;6.90;5.20;;;;;;;24.95;51.77;100493.19;5071449;28;20151;-66
2023/05/27 02:35:29;;;;;;;6.93;5.32;;;;;;;24.95;51.50;100495.94;5071840;28;20146;-66
2023/05/27 02:37:57;;;;;;;7.13;5.20;;;;;;;24.93;51.88;100492.53;5071786;28;20045;-66
2023/05/27 02:40:26;;;;;;;7.50;5.18;;;;;;;24.94;51.70;100494.22;5071628;28;20415;-65
2023/05/27 02:42:54;;;;;;;7.03;5.85;;;;;;;24.93;51.75;100492.53;5071483;28;20493;-65
2023/05/27 02:45:23;;;;;;;7.25;5.28;;;;;;;24.92;51.61;100496.31;5071266;28;20507;-65
2023/05/27 02:47:55;;;;;;;6.22;4.85;;;;;;;24.90;51.69;100492.91;5071643;28;20476;-64
2023/05/27 02:50:23;;;;;;;7.30;5.50;;;;;;;24.90;51.82;100494.75;5071570;28;20442;-65
2023/05/27 02:52:51;;;;;;;7.30;5.70;;;;;;;24.89;51.56;100491.19;5071318;28;20049;-66
2023/05/27 02:55:20;;;;;;;7.43;5.75;;;;;;;24.89;51.95;100498.50;5071373;28;20112;-65
2023/05/27 02:57:48;;;;;;;6.70;5.60;;;;;;;24.88;51.57;100496.81;5071471;28;20052;-65
2023/05/27 03:00:17;;;;;;;6.55;5.28;;;;;;;24.86;51.64;100491.53;5071305;28;20139;-65
2023/05/27 03:02:45;;;;;;;7.30;5.78;;;;;;;24.86;51.72;100491.53;5071465;28;20110;-65
2023/05/27 03:05:15;;;;;;;6.80;5.63;;;;;;;24.84;51.93;100494.47;5071543;28;20087;-65
2023/05/27 03:07:43;;;;;;;6.97;5.47;;;;;;;24.83;51.99;100489.19;5071294;28;20086;-65
2023/05/27 03:10:11;;;;;;;6.80;5.93;;;;;;;24.82;51.91;100492.94;5071351;28;20102;-66
2023/05/27 03:12:40;;;;;;;8.38;5.47;;;;;;;24.81;51.69;100494.81;5070960;28;20087;-65
2023/05/27 03:15:08;;;;;;;7.90;5.88;;;;;;;24.80;51.88;100501.31;5071138;28;20516;-65
2023/05/27 03:17:37;;;;;;;7.55;5.95;;;;;;;24.80;51.73;100505.88;5071363;28;20413;-65
2023/05/27 03:20:07;;;;;;;9.10;6.20;;;;;;;24.79;51.73;100505.03;5075155;28;20079;-65
2023/05/27 03:22:37;;;;;;;7.13;5.93;;;;;;;24.79;51.80;100504.19;5075187;28;20413;-66
2023/05/27 03:25:07;;;;;;;7.57;6.03;;;;;;;24.78;51.97;100507.94;5075204;28;20084;-65
2023/05/27 03:27:36;;;;;;;8.20;5.97;;;;;;;24.77;51.77;100503.53;5075375;28;20414;-65
2023/05/27 03:30:05;;;;;;;7.35;5.65;;;;;;;24.76;51.76;100507.28;5075113;28;20049;-65
2023/05/27 03:32:33;;;;;;;7.60;5.82;;;;;;;24.75;52.03;100497.41;5074936;28;20052;-65
2023/05/27 03:35:01;;;;;;;8.27;5.90;;;;;;;24.75;51.77;100511.03;5074879;28;20056;-65
2023/05/27 03:37:29;;;;;;;6.78;5.78;;;;;;;24.74;51.88;100507.47;5074857;28;20482;-65
2023/05/27 03:39:59;;;;;;;7.68;6.00;;;;;;;24.73;51.78;100510.38;5074770;28;20068;-65
2023/05/27 03:42:27;;;;;;;7.63;5.90;;;;;;;24.73;51.81;100524.03;5074972;28;20040;-65
2023/05/27 03:44:55;;;;;;;6.78;5.68;;;;;;;24.72;51.83;100511.41;5074746;28;20044;-66
2023/05/27 03:47:24;;;;;;;7.47;5.85;;;;;;;24.71;51.72;100515.16;5074840;28;20102;-65
2023/05/27 03:49:52;;;;;;;7.28;6.00;;;;;;;24.71;51.82;100509.72;5074733;28;20353;-65
2023/05/27 03:52:20;;;;;;;8.13;6.10;;;;;;;24.70;51.63;100514.28;5074389;28;20041;-65
2023/05/27 03:54:48;;;;;;;7.70;5.95;;;;;;;24.69;51.55;100506.28;5074857;28;20055;-65
2023/05/27 03:57:18;;;;;;;7.60;6.22;;;;;;;24.70;51.70;100510.72;5073388;28;20053;-65
2023/05/27 03:59:46;;;;;;;7.38;5.93;;;;;;;24.68;51.94;100510.03;5064733;28;20055;-65
2023/05/27 04:02:15;;;;;;;7.15;5.53;;;;;;;24.67;51.63;100508.34;5054542;28;20045;-65
2023/05/27 04:04:43;;;;;;;7.85;6.18;;;;;;;24.67;51.43;100508.34;5054421;28;20421;-65
2023/05/27 04:07:13;;;;;;;7.28;5.97;;;;;;;24.65;51.63;100513.13;5054380;28;20433;-65
2023/05/27 04:09:41;;;;;;;8.50;5.75;;;;;;;24.66;51.74;100512.09;5054505;28;20048;-66
2023/05/27 04:12:09;;;;;;;7.60;6.05;;;;;;;24.65;51.72;100513.13;5052961;28;20053;-65
2023/05/27 04:14:39;;;;;;;8.15;6.50;;;;;;;24.64;51.67;100511.44;5054150;28;20475;-65
2023/05/27 04:17:08;;;;;;;9.13;6.43;;;;;;;24.65;51.85;100518.59;5054279;28;20049;-65
2023/05/27 04:19:36;;;;;;;7.97;6.32;;;;;;;24.64;51.64;100517.75;5054042;28;20076;-66
2023/05/27 04:22:04;;;;;;;8.15;6.30;;;;;;;24.64;51.39;100514.16;5054077;28;20490;-65
2023/05/27 04:24:32;;;;;;;8.15;6.55;;;;;;;24.63;51.63;100520.66;5054147;28;20049;-65
2023/05/27 04:27:02;;;;;;;8.32;6.00;;;;;;;24.61;51.60;100515.38;5054003;28;20099;-65
2023/05/27 04:29:31;;;;;;;7.75;6.10;;;;;;;24.62;51.42;100522.53;5053620;28;20071;-65
2023/05/27 04:32:01;;;;;;;7.90;6.00;;;;;;;24.62;51.55;100529.88;5053590;28;20049;-65
2023/05/27 04:34:30;;;;;;;7.68;6.28;;;;;;;24.62;51.50;100529.88;5053785;28;20053;-66
2023/05/27 04:37:00;;;;;;;9.75;6.43;;;;;;;24.60;51.38;100526.44;5054011;28;20102;-65
2023/05/27 04:39:29;;;;;;;9.70;6.60;;;;;;;24.60;51.38;100529.16;5062666;28;20045;-65
2023/05/27 04:41:58;;;;;;;7.70;6.28;;;;;;;24.60;51.60;100531.91;5053506;28;20509;-65
2023/05/27 04:44:28;;;;;;;8.55;6.60;;;;;;;24.59;51.50;100533.78;5053640;28;20056;-65
2023/05/27 04:46:56;;;;;;;7.60;5.93;;;;;;;24.59;51.23;100532.94;5053535;28;20823;-64
2023/05/27 04:49:26;;;;;;;7.70;6.07;;;;;;;24.58;51.38;100532.06;5053588;28;20055;-65
2023/05/27 04:51:54;;;;;;;8.40;6.60;;;;;;;24.59;51.30;100538.38;5053618;28;20049;-65
2023/05/27 04:54:23;;;;;;;8.45;6.75;;;;;;;24.58;51.38;100537.53;5053490;28;20053;-64
2023/05/27 04:56:52;;;;;;;8.07;6.10;;;;;;;24.58;51.47;100536.69;5053366;28;20068;-64
2023/05/27 04:59:21;;;;;;;7.85;5.75;;;;;;;24.57;51.69;100537.72;5053345;28;20403;-64
2023/05/27 05:02:09;;;;;;;8.32;6.20;;;;;;;24.57;51.56;100543.16;5053523;28;20132;-65
2023/05/27 05:04:39;;;;;;;10.13;6.20;;;;;;;24.55;51.33;100538.75;5053314;28;20057;-64
2023/05/27 05:07:07;;;;;;;8.25;6.38;;;;;;;24.56;51.42;100539.59;5053251;28;20059;-64
2023/05/27 05:09:35;;;;;;;8.93;5.95;;;;;;;24.57;51.34;100543.16;5053125;28;20053;-64
2023/05/27 05:12:04;;;;;;;8.90;6.15;;;;;;;24.55;51.45;100549.66;5052897;28;20057;-65
2023/05/27 05:14:33;;;;;;;8.27;5.93;;;;;;;24.55;51.33;100546.91;5053075;28;20076;-64
2023/05/27 05:17:01;;;;;;;8.48;6.32;;;;;;;24.55;51.24;100555.09;5053178;28;20075;-64
2023/05/27 05:19:29;;;;;;;8.35;6.47;;;;;;;24.55;51.31;100549.66;5053208;28;20045;-64
2023/05/27 05:21:59;;;;;;;8.63;6.40;;;;;;;24.54;51.48;100553.41;5053090;28;20405;-64
2023/05/27 05:24:27;;;;;;;9.35;6.00;;;;;;;24.54;51.39;100563.47;5052712;28;20447;-64
2023/05/27 05:26:55;;;;;;;7.40;5.90;;;;;;;24.53;51.44;100557.16;5053006;28;20041;-65
2023/05/27 05:29:23;;;;;;;7.90;6.35;;;;;;;24.54;51.33;100563.47;5052836;28;20053;-64
2023/05/27 05:31:51;;;;;;;7.47;6.10;;;;;;;24.54;51.10;100567.03;5052794;28;20147;-65
2023/05/27 05:34:20;;;;;;;9.50;6.50;;;;;;;24.54;51.41;100564.31;5052607;28;20053;-65
2023/05/27 05:36:48;;;;;;;8.45;5.97;;;;;;;24.54;51.11;100569.75;5052544;28;20049;-65
2023/05/27 05:39:18;;;;;;;8.35;6.07;;;;;;;24.53;51.22;100562.63;5052726;28;20045;-65
2023/05/27 05:41:46;;;;;;;8.68;6.70;;;;;;;24.53;51.38;100568.06;5051827;28;20041;-65
2023/05/27 05:44:16;;;;;;;7.88;6.22;;;;;;;24.54;51.15;100568.91;5052531;28;20452;-64
2023/05/27 05:46:44;;;;;;;8.98;5.85;;;;;;;24.53;51.12;100562.63;5052487;28;20090;-67
2023/05/27 05:49:13;;;;;;;9.48;6.30;;;;;;;24.54;51.13;100558.84;5052346;28;20080;-66
2023/05/27 05:51:41;;;;;;;7.68;6.32;;;;;;;24.54;51.09;100568.91;5053579;28;20048;-68
2023/05/27 05:54:09;;;;;;;8.07;5.85;;;;;;;24.54;51.17;100568.91;5052530;28;20081;-66
2023/05/27 05:56:39;;;;;;;8.55;5.82;;;;;;;24.54;51.00;100569.75;5052264;28;20465;-65
2023/05/27 05:59:08;;;;;;;8.27;5.97;;;;;;;24.54;51.18;100575.22;5052234;28;20056;-64
2023/05/27 06:01:36;;;;;;;8.38;5.90;;;;;;;24.54;51.22;100582.56;5052230;28;20409;-65
2023/05/27 06:04:06;;;;;;;8.07;6.03;;;;;;;24.53;51.17;100584.44;5053935;28;20049;-63
2023/05/27 06:06:34;;;;;;;8.88;6.00;;;;;;;24.53;51.04;100592.59;5071444;28;20071;-64
2023/05/27 06:09:02;;;;;;;9.57;5.93;;;;;;;24.53;50.61;100595.34;5071697;28;20463;-64
2023/05/27 06:11:31;;;;;;;8.27;5.75;;;;;;;24.53;50.58;100589.03;5071569;28;20100;-64
2023/05/27 06:14:00;;;;;;;8.07;5.95;;;;;;;24.53;50.60;100591.75;5069836;28;20147;-65
2023/05/27 06:16:28;;;;;;;8.10;5.93;;;;;;;24.52;50.60;100599.09;5071559;28;20091;-64
2023/05/27 06:18:57;;;;;;;8.90;6.07;;;;;;;24.52;50.71;100604.53;5071716;28;20711;-65
2023/05/27 06:21:25;;;;;;;10.63;6.57;;;;;;;24.53;50.71;100610.84;5071235;28;20076;-64
2023/05/27 06:23:53;;;;;;;8.43;5.68;;;;;;;24.52;50.51;100614.59;5071010;28;20045;-65
2023/05/27 06:26:22;;;;;;;7.88;5.72;;;;;;;24.51;50.44;100607.41;5071332;28;20105;-64
2023/05/27 06:28:50;;;;;;;9.48;5.88;;;;;;;24.51;50.14;100597.41;5071436;28;20045;-64
2023/05/27 06:31:19;;;;;;;8.98;5.90;;;;;;;24.51;50.45;100607.41;5071237;28;20501;-65
2023/05/27 06:33:47;;;;;;;9.45;5.53;;;;;;;24.50;50.22;100606.56;5071667;28;20135;-65
2023/05/27 06:36:15;;;;;;;8.75;5.53;;;;;;;24.51;50.28;100607.41;5071650;28;20405;-66
2023/05/27 06:38:44;;;;;;;9.13;5.65;;;;;;;24.51;50.28;100605.56;5071268;28;20045;-67
2023/05/27 06:41:12;;;;;;;8.20;5.57;;;;;;;24.51;50.09;100608.31;5061084;28;20041;-64
2023/05/27 06:43:40;;;;;;;7.82;5.78;;;;;;;24.51;50.33;100608.31;5071339;28;20498;-67
2023/05/27 06:46:09;;;;;;;8.30;5.80;;;;;;;24.51;50.07;100613.75;5068882;28;20128;-66
2023/05/27 06:48:38;;;;;;;9.10;6.03;;;;;;;24.52;49.89;100614.59;5068665;28;20044;-66
2023/05/27 06:51:07;;;;;;;8.95;5.55;;;;;;;24.53;50.08;100617.16;5071156;28;20048;-65
2023/05/27 06:53:35;;;;;;;8.85;5.30;;;;;;;24.52;50.15;100620.91;5070748;28;20072;-66
2023/05/27 06:56:04;;;;;;;7.95;5.20;;;;;;;24.52;50.05;100623.63;5071099;28;20075;-65
2023/05/27 06:58:32;;;;;;;9.45;5.90;;;;;;;24.53;49.99;100627.22;5070752;28;20485;-65
2023/05/27 07:01:02;;;;;;;8.55;5.70;;;;;;;24.53;50.00;100632.66;5070887;28;20036;-64
2023/05/27 07:03:31;;;;;;;7.68;5.30;;;;;;;24.54;50.22;100627.03;5070759;28;20047;-64
2023/05/27 07:06:01;;;;;;;8.25;5.45;;;;;;;24.53;49.93;100633.50;5071040;28;20044;-64
2023/05/27 07:08:29;;;;;;;8.30;5.15;;;;;;;24.53;49.93;100627.22;5071032;28;20041;-65
2023/05/27 07:10:57;;;;;;;7.38;5.03;;;;;;;24.54;49.46;100629.75;5070773;28;20053;-65
2023/05/27 07:13:26;;;;;;;8.35;5.60;;;;;;;24.55;49.66;100625.16;5070581;28;20060;-65
2023/05/27 07:15:54;;;;;;;8.98;5.70;;;;;;;24.55;49.81;100622.44;5071226;28;20049;-66
2023/05/27 07:18:22;;;;;;;9.82;5.47;;;;;;;24.54;49.37;100624.31;5071493;28;20094;-66
2023/05/27 07:20:50;;;;;;;7.35;5.03;;;;;;;24.55;49.71;100620.53;5071076;28;20559;-64
2023/05/27 07:23:20;;;;;;;7.65;5.28;;;;;;;24.57;49.46;100627.69;5071310;28;20144;-64
2023/05/27 07:25:48;;;;;;;9.30;5.30;;;;;;;24.56;49.32;100621.41;5070931;28;20048;-68
2023/05/27 07:28:18;;;;;;;7.70;5.03;;;;;;;24.57;49.24;100623.09;5071269;28;20129;-66
2023/05/27 07:30:46;;;;;;;8.05;5.10;;;;;;;24.58;49.40;100629.41;5069929;28;20059;-66
2023/05/27 07:33:14;;;;;;;8.45;5.10;;;;;;;24.59;49.31;100631.09;5071130;28;20040;-67
2023/05/27 07:35:43;;;;;;;7.18;4.70;;;;;;;24.59;49.38;100628.38;5071072;28;20117;-69
2023/05/27 07:38:11;;;;;;;7.05;4.95;;;;;;;24.59;49.37;100620.19;5070960;28;20045;-67
2023/05/27 07:40:41;;;;;;;7.93;5.20;;;;;;;24.60;49.16;100624.63;5071203;28;20123;-63
2023/05/27 07:43:09;;;;;;;10.50;5.10;;;;;;;24.58;48.33;100627.53;5071055;28;20127;-67
2023/05/27 07:45:37;;;;;;;9.48;5.40;;;;;;;24.56;46.71;100632.31;5071030;28;20048;-63
2023/05/27 07:48:05;;;;;;;9.00;4.50;;;;;;;24.54;46.66;100624.31;5070868;28;20083;-65
2023/05/27 07:50:33;;;;;;;9.43;4.75;;;;;;;24.56;47.30;100626.84;5070809;28;20060;-64
2023/05/27 07:53:01;;;;;;;7.82;4.88;;;;;;;24.57;47.16;100622.25;5070762;28;20127;-65
2023/05/27 07:55:30;;;;;;;10.60;5.18;;;;;;;24.57;47.31;100611.34;5070579;28;20436;-64
2023/05/27 07:57:59;;;;;;;7.78;4.80;;;;;;;24.58;47.44;100615.75;5070743;28;20055;-65
2023/05/27 08:00:28;;;;;;;8.88;5.28;;;;;;;24.57;47.73;100611.34;5070316;28;20565;-65
2023/05/27 08:02:56;;;;;;;8.82;4.72;;;;;;;24.57;47.39;100612.19;5070132;28;20051;-65
2023/05/27 08:05:24;;;;;;;9.80;4.55;;;;;;;24.59;47.75;100610.13;5073544;28;20044;-65
2023/05/27 08:07:53;;;;;;;9.27;4.85;;;;;;;24.58;47.56;100605.72;5074600;28;20040;-63
2023/05/27 08:10:21;;;;;;;9.48;4.70;;;;;;;24.58;47.52;100607.59;5074623;28;20144;-65
2023/05/27 08:12:50;;;;;;;7.72;4.63;;;;;;;24.59;47.40;100601.09;5074046;28;20490;-65
2023/05/27 08:15:20;;;;;;;8.10;4.07;;;;;;;24.60;47.52;100594.63;5074262;28;20114;-65
2023/05/27 08:17:48;;;;;;;7.97;4.72;;;;;;;24.61;47.76;100602.66;5074083;28;20478;-65
2023/05/27 08:20:16;;;;;;;9.07;4.78;;;;;;;24.61;47.99;100596.31;5074055;28;20493;-65
2023/05/27 08:22:45;;;;;;;9.77;4.65;;;;;;;24.61;47.98;100601.78;5074349;28;20433;-65
2023/05/27 08:25:13;;;;;;;7.47;4.50;;;;;;;24.62;47.72;100598.03;5074272;28;20391;-65
2023/05/27 08:27:46;;;;;;;9.05;4.82;;;;;;;24.63;47.89;100591.56;5074342;28;20094;-65
2023/05/27 08:30:14;;;;;;;;;;;;;;;24.62;47.57;100593.44;5074278;28;20540;-63
2023/05/27 08:32:44;;;;;;;7.25;4.40;;;;;;;24.63;47.60;100588.84;5073701;28;19928;-64
2023/05/27 08:35:12;;;;;;;7.40;4.60;;;;;;;24.63;47.55;100597.03;5073985;28;20102;-64
2023/05/27 08:37:41;;;;;;;7.88;4.45;;;;;;;24.64;47.81;100598.72;5074019;28;20049;-64
2023/05/27 08:40:15;;;;;;;8.25;4.57;;;;;;;24.66;47.69;100591.19;5073764;28;20040;-64
2023/05/27 08:42:44;;;;;;;7.25;4.70;;;;;;;24.66;47.88;100593.94;5073826;28;20135;-65
2023/05/27 08:45:13;;;;;;;7.10;4.18;;;;;;;24.66;47.69;100591.19;5073602;28;20497;-64
2023/05/27 08:47:41;;;;;;;9.25;4.68;;;;;;;24.67;48.09;100590.16;5073799;28;20472;-64
2023/05/27 08:50:12;;;;;;;7.95;4.40;;;;;;;24.67;47.48;100596.47;5073506;28;20136;-64
2023/05/27 08:52:46;;;;;;;8.13;4.32;;;;;;;24.67;47.33;100590.16;5073810;28;20041;-64
2023/05/27 08:55:17;;;;;;;8.20;4.28;;;;;;;24.69;47.31;100593.56;5070770;28;20459;-64
2023/05/27 08:57:51;;;;;;;8.45;4.13;;;;;;;24.69;47.50;100599.88;5070575;28;20377;-64
2023/05/27 09:00:19;;;;;;;8.93;4.68;;;;;;;24.71;47.44;100597.00;5073908;28;20050;-64
2023/05/27 09:02:48;;;;;;;8.18;4.38;;;;;;;24.71;47.18;100591.53;5079797;28;20040;-63
2023/05/27 09:05:18;;;;;;;7.72;4.20;;;;;;;24.72;47.66;100595.97;5073278;28;20049;-65
2023/05/27 09:07:47;;;;;;;9.23;4.55;;;;;;;24.73;47.23;100595.78;5073100;28;20052;-64
2023/05/27 09:10:15;;;;;;;7.10;4.32;;;;;;;24.73;47.61;100592.22;5073089;28;20055;-64
2023/05/27 09:12:44;;;;;;;8.98;4.32;;;;;;;24.76;47.61;100600.03;5072964;28;20068;-64
2023/05/27 09:15:13;;;;;;;8.13;4.60;;;;;;;24.75;47.43;100592.88;5078138;28;20049;-64
2023/05/27 09:17:45;;;;;;;6.53;4.32;;;;;;;24.76;47.39;100594.56;5072196;28;20531;-64
2023/05/27 09:20:13;;;;;;;9.10;4.75;;;;;;;24.79;47.51;100591.50;5072633;28;20084;-64
2023/05/27 09:22:43;;;;;;;6.85;4.00;;;;;;;24.79;47.47;100592.34;5072710;28;20071;-65
2023/05/27 09:25:11;;;;;;;6.93;4.47;;;;;;;24.80;47.17;100590.47;5072770;28;20439;-64
2023/05/27 09:27:43;;;;;;;8.68;4.68;;;;;;;24.82;47.53;100593.88;5072976;28;20082;-64
2023/05/27 09:30:13;;;;;;;7.85;4.55;;;;;;;24.83;46.95;100590.13;5072499;28;20040;-64
2023/05/27 09:32:42;;;;;;;7.57;4.45;;;;;;;24.82;47.15;100589.28;5072441;28;20052;-64
2023/05/27 09:35:12;;;;;;;6.88;4.28;;;;;;;24.85;47.39;100590.78;5072497;28;20176;-64
2023/05/27 09:37:40;;;;;;;7.10;4.75;;;;;;;24.86;47.01;100589.75;5072435;28;20426;-64
2023/05/27 09:40:13;;;;;;;7.88;4.40;;;;;;;24.88;47.44;100593.16;5072246;28;20044;-64
2023/05/27 09:42:45;;;;;;;6.78;4.07;;;;;;;24.90;47.33;100584.78;5072470;28;20406;-64
2023/05/27 09:45:16;;;;;;;6.28;4.25;;;;;;;24.91;47.20;100575.59;5072167;28;20082;-65
2023/05/27 09:47:49;;;;;;;6.10;3.88;;;;;;;24.91;47.34;100581.91;5072109;28;20090;-64
2023/05/27 09:50:19;;;;;;;7.95;4.70;;;;;;;24.93;46.78;100576.28;5072180;28;20143;-65
2023/05/27 09:52:49;;;;;;;6.38;4.30;;;;;;;24.94;46.74;100569.78;5071872;28;20105;-65
2023/05/27 09:55:35;;;;;;;7.97;4.65;;;;;;;24.96;47.09;100584.94;5057812;28;20044;-64
2023/05/27 09:58:03;;;;;;;8.30;4.57;;;;;;;24.97;47.01;100574.88;5072403;28;20131;-65
2023/05/27 10:00:34;;;;;;;8.18;4.00;;;;;;;24.97;46.71;100575.72;5071671;28;20053;-66
2023/05/27 10:03:03;;;;;;;7.30;4.63;;;;;;;24.98;46.51;100560.19;5072005;28;20048;-65
2023/05/27 10:05:32;;;;;;;7.45;4.22;;;;;;;24.99;46.49;100572.81;5072045;28;20127;-62
2023/05/27 10:08:01;;;;;;;7.70;4.80;;;;;;;25.00;46.85;100561.75;5066427;28;20131;-64
2023/05/27 10:10:35;;;;;;;7.30;4.67;;;;;;;25.01;46.45;100560.72;5052170;28;20060;-63
2023/05/27 10:13:03;;;;;;;6.63;4.18;;;;;;;25.03;46.89;100563.28;5063837;28;20106;-64
2023/05/27 10:15:33;;;;;;;8.43;4.47;;;;;;;25.04;46.69;100565.84;5072059;28;20135;-62
2023/05/27 10:18:05;;;;;;;6.68;4.28;;;;;;;25.06;46.76;100560.19;5071643;28;20611;-63
2023/05/27 10:20:37;;;;;;;8.13;4.43;;;;;;;25.07;46.24;100564.63;5071707;28;20044;-70
2023/05/27 10:23:12;;;;;;;9.10;4.43;;;;;;;25.07;46.21;100565.47;5071754;28;20055;-64
2023/05/27 10:25:47;;;;;;;7.55;4.53;;;;;;;25.08;45.98;100564.44;5071230;28;20452;-64
2023/05/27 10:28:25;;;;;;;8.35;4.45;;;;;;;25.09;45.58;100552.53;5071443;28;20041;-67
2023/05/27 10:30:53;;;;;;;8.15;4.80;;;;;;;25.10;45.33;100553.38;5071682;28;20087;-62
2023/05/27 10:33:30;;;;;;;8.68;4.68;;;;;;;25.13;45.01;100557.63;5071388;28;21066;-63
2023/05/27 10:36:08;;;;;;;7.65;4.40;;;;;;;25.14;45.23;100551.13;5066918;28;20037;-63
2023/05/27 10:38:36;;;;;;;7.72;4.70;;;;;;;25.17;45.45;100553.47;5052836;28;20087;-62
2023/05/27 10:41:10;;;;;;;7.47;4.80;;;;;;;25.18;45.21;100557.91;5051311;28;20041;-63
2023/05/27 10:43:38;;;;;;;8.32;4.68;;;;;;;25.20;45.51;100553.16;5051758;28;20092;-63
2023/05/27 10:46:10;;;;;;;6.70;4.45;;;;;;;25.22;45.40;100553.81;5052680;28;20052;-63
2023/05/27 10:48:39;;;;;;;6.82;4.63;;;;;;;25.25;45.38;100545.25;5071351;28;20131;-62
2023/05/27 10:51:08;;;;;;;7.28;4.38;;;;;;;25.28;45.62;100550.34;5070754;28;20495;-61
2023/05/27 10:53:37;;;;;;;7.68;4.70;;;;;;;25.30;45.95;100549.16;5070659;28;20048;-63
2023/05/27 10:56:08;;;;;;;9.30;4.60;;;;;;;25.33;45.73;100550.66;5071135;28;20110;-62
2023/05/27 10:58:39;;;;;;;11.40;4.63;;;;;;;25.35;45.97;100551.31;5071109;28;20486;-62
2023/05/27 11:01:12;;;;;;;9.27;4.90;;;;;;;25.38;45.53;100542.75;5070887;28;20517;-62
2023/05/27 11:03:45;;;;;;;7.90;4.90;;;;;;;25.40;45.60;100538.84;5071331;28;20049;-62
2023/05/27 11:06:16;;;;;;;8.85;4.80;;;;;;;25.44;45.74;100539.31;5071033;28;20044;-62
2023/05/27 11:08:45;;;;;;;9.52;5.03;;;;;;;25.47;45.15;100538.09;5070972;28;20095;-62
2023/05/27 11:11:16;;;;;;;8.90;5.30;;;;;;;25.48;45.44;100537.06;5071172;28;20048;-63
2023/05/27 11:13:45;;;;;;;11.38;5.43;;;;;;;25.49;45.47;100541.50;5070740;28;20045;-66
2023/05/27 11:16:19;;;;;;;7.88;4.75;;;;;;;25.50;45.33;100538.59;5067888;28;20119;-61
2023/05/27 11:18:48;;;;;;;8.18;4.72;;;;;;;25.52;44.98;100538.41;5058785;28;20072;-61
2023/05/27 11:21:17;;;;;;;8.20;4.60;;;;;;;25.55;44.75;100538.88;5070104;28;20132;-65
2023/05/27 11:23:47;;;;;;;7.35;4.88;;;;;;;25.57;45.32;100534.09;5070431;28;20059;-64
2023/05/27 11:26:18;;;;;;;9.93;5.35;;;;;;;25.60;45.35;100538.34;5070480;28;20049;-65
2023/05/27 11:28:47;;;;;;;7.05;4.60;;;;;;;25.61;45.19;100529.97;5070753;28;20052;-64
2023/05/27 11:31:16;;;;;;;8.00;4.82;;;;;;;25.62;45.23;100542.59;5070913;28;20045;-64
2023/05/27 11:33:45;;;;;;;8.35;5.03;;;;;;;25.64;45.32;100540.53;5070473;28;20041;-65